Unlu-5 — TCON5 — position and weather

sailwx.info

Track history (hours):
 
Tides and Currents Weather Stations Pressure Air Temp Water Temp Dewpoint Dewpoint Depression Visibility Wind Speed Wind Dir Waves Ship Positions

Unlu-5

Last reported at 2015-Jul-29 07:17 UTC. Time now 2015-Aug-04 15:56 UTC.
Position N 44°02' E 010°02'.

Length 99 m; draft 3.7 m.

Type: Cargo ship. MMSI: 271000854.

Date/timePositionNaut miles runAvg speedWind from/ knotsBaromVisibWave heightAir tempDewpointWater temp
2015-Jul-29 07:17N 44°02' E 010°02'0 0.0
2015-Jul-29 06:32N 44°02' E 010°02'0 0.0
2015-Jul-29 05:32N 44°02' E 010°02'0 0.0
2015-Jul-29 04:32N 44°02' E 010°02'0 0.0
2015-Jul-29 03:29N 44°02' E 010°02'0 0.0
2015-Jul-29 02:32N 44°02' E 010°02'0 0.0
2015-Jul-29 01:32N 44°02' E 010°02'0 0.0
2015-Jul-29 00:29N 44°02' E 010°02'0 0.0
2015-Jul-28 23:32N 44°02' E 010°02'0 0.0
2015-Jul-28 22:32N 44°02' E 010°02'0 0.0
2015-Jul-28 21:32N 44°02' E 010°02'0 0.0
2015-Jul-28 20:32N 44°02' E 010°02'0 0.0
2015-Jul-28 19:32N 44°02' E 010°02'0 0.0
2015-Jul-28 18:32N 44°02' E 010°02'0 0.0
2015-Jul-28 17:32N 44°02' E 010°02'0 0.0
2015-Jul-28 16:32N 44°02' E 010°02'1 1.3
2015-Jul-28 15:34N 44°01' E 010°02'0 0.2
2015-Jul-28 14:32N 44°01' E 010°02'3 2.7
2015-Jul-28 13:33N 43°59' E 010°00'8 7.7
2015-Jul-28 12:33N 43°51' E 009°57'8 7.7
2015-Jul-28 11:34N 43°44' E 009°52'8 7.9
2015-Jul-28 10:33N 43°37' E 009°47'8 7.8
2015-Jul-28 09:34N 43°30' E 009°44'8 7.6
2015-Jul-28 08:33N 43°23' E 009°42'7 7.4
2015-Jul-28 07:33N 43°15' E 009°43'7 7.4
2015-Jul-28 06:33N 43°08' E 009°42'8 7.7
2015-Jul-28 05:33N 42°60' E 009°41'8 7.2
2015-Jul-28 04:30N 42°54' E 009°47'26 8.2
2015-Jul-28 01:18N 42°37' E 010°14'6 8.4
2015-Jul-28 00:33N 42°32' E 010°20'17 8.3
2015-Jul-27 22:31N 42°20' E 010°36'295 7.1
2015-Jul-26 05:09N 38°48' E 015°06'5 8.5
2015-Jul-26 04:33N 38°44' E 015°10'9 8.4
2015-Jul-26 03:31N 38°38' E 015°18'8 8.4
2015-Jul-26 02:34N 38°32' E 015°25'8 8.3
2015-Jul-26 01:33N 38°27' E 015°33'8 8.2
2015-Jul-26 00:33N 38°21' E 015°41'7 6.7
2015-Jul-25 23:33N 38°15' E 015°39'8 7.9
2015-Jul-25 22:34N 38°07' E 015°36'8 8.0
2015-Jul-25 21:34N 37°59' E 015°35'8 8.0
2015-Jul-25 20:34N 37°51' E 015°35'7 7.3
2015-Jul-25 19:33N 37°44' E 015°34'7 6.8
2015-Jul-25 18:33N 37°37' E 015°33'40 8.0
2015-Jul-25 13:32N 36°57' E 015°27'8 8.3
2015-Jul-25 12:32N 36°49' E 015°25'57 8.1
2015-Jul-25 05:32N 35°59' E 014°52'3 3.1
2015-Jul-25 04:33N 35°56' E 014°50'0 0.0
2015-Jul-25 03:15N 35°56' E 014°50'0 0.0
2015-Jul-25 02:30N 35°56' E 014°50'0 0.0
2015-Jul-25 01:33N 35°56' E 014°50'0 0.1
2015-Jul-25 00:33N 35°56' E 014°50'0 0.0
2015-Jul-24 23:33N 35°56' E 014°50'0 0.0
2015-Jul-24 22:33N 35°56' E 014°50'0 0.0
2015-Jul-24 21:33N 35°56' E 014°50'0 0.0
2015-Jul-24 20:33N 35°56' E 014°50'0 0.0
2015-Jul-24 19:30N 35°56' E 014°50'0 0.0
2015-Jul-24 18:30N 35°56' E 014°50'0 0.0
2015-Jul-24 17:30N 35°56' E 014°50'0 0.0
2015-Jul-24 16:33N 35°56' E 014°50'7 6.7
2015-Jul-24 15:33N 35°55' E 014°42'9 8.7
2015-Jul-24 14:33N 35°54' E 014°31'1 0.1
2015-Jul-23 20:32N 35°53' E 014°30'0 0.0
2015-Jul-23 14:08N 35°53' E 014°30'0 0.0
2015-Jul-23 00:20N 35°53' E 014°30'0 0.0
2015-Jul-22 22:29N 35°53' E 014°30'0 0.0
2015-Jul-22 21:23N 35°53' E 014°30'0 0.0
2015-Jul-22 20:32N 35°53' E 014°30'0 0.0
2015-Jul-22 19:32N 35°53' E 014°30'2 0.3
2015-Jul-22 12:33N 35°55' E 014°32'1 1.4
2015-Jul-22 11:33N 35°56' E 014°33'2 2.1
2015-Jul-22 10:33N 35°58' E 014°34'0 0.3
2015-Jul-22 09:33N 35°58' E 014°35'0 0.3
2015-Jul-22 08:33N 35°58' E 014°35'0 0.3
2015-Jul-22 07:33N 35°58' E 014°35'0 0.5
2015-Jul-22 06:33N 35°58' E 014°35'1 0.5
2015-Jul-22 05:33N 35°59' E 014°35'2 1.6
2015-Jul-22 04:33N 36°00' E 014°36'8 7.7
2015-Jul-22 03:33N 36°07' E 014°42'8 7.7
2015-Jul-22 02:33N 36°13' E 014°47'8 7.6
2015-Jul-22 01:33N 36°19' E 014°52'7 7.4
2015-Jul-22 00:33N 36°26' E 014°58'8 7.5
2015-Jul-21 23:33N 36°32' E 015°03'8 7.6
2015-Jul-21 22:33N 36°36' E 015°11'8 7.9
2015-Jul-21 21:33N 36°43' E 015°16'8 8.4
2015-Jul-21 20:33N 36°51' E 015°20'8 8.5
2015-Jul-21 19:33N 36°59' E 015°24'  
Track history (hours):
 
Tides and Currents Weather Stations Pressure Air Temp Water Temp Dewpoint Dewpoint Depression Visibility Wind Speed Wind Dir Waves Ship Positions

Unlu-5

Last reported at 2015-Jul-29 07:17 UTC. Time now 2015-Aug-04 15:56 UTC.
Position N 44°02' E 010°02'.

Length 99 m; draft 3.7 m.

Type: Cargo ship. MMSI: 271000854.

Date/timePositionNaut miles runAvg speedWind from/ knotsBaromVisibWave heightAir tempDewpointWater temp
2015-Jul-29 07:17N 44°02' E 010°02'0 0.0
2015-Jul-29 06:32N 44°02' E 010°02'0 0.0
2015-Jul-29 05:32N 44°02' E 010°02'0 0.0
2015-Jul-29 04:32N 44°02' E 010°02'0 0.0
2015-Jul-29 03:29N 44°02' E 010°02'0 0.0
2015-Jul-29 02:32N 44°02' E 010°02'0 0.0
2015-Jul-29 01:32N 44°02' E 010°02'0 0.0
2015-Jul-29 00:29N 44°02' E 010°02'0 0.0
2015-Jul-28 23:32N 44°02' E 010°02'0 0.0
2015-Jul-28 22:32N 44°02' E 010°02'0 0.0
2015-Jul-28 21:32N 44°02' E 010°02'0 0.0
2015-Jul-28 20:32N 44°02' E 010°02'0 0.0
2015-Jul-28 19:32N 44°02' E 010°02'0 0.0
2015-Jul-28 18:32N 44°02' E 010°02'0 0.0
2015-Jul-28 17:32N 44°02' E 010°02'0 0.0
2015-Jul-28 16:32N 44°02' E 010°02'1 1.3
2015-Jul-28 15:34N 44°01' E 010°02'0 0.2
2015-Jul-28 14:32N 44°01' E 010°02'3 2.7
2015-Jul-28 13:33N 43°59' E 010°00'8 7.7
2015-Jul-28 12:33N 43°51' E 009°57'8 7.7
2015-Jul-28 11:34N 43°44' E 009°52'8 7.9
2015-Jul-28 10:33N 43°37' E 009°47'8 7.8
2015-Jul-28 09:34N 43°30' E 009°44'8 7.6
2015-Jul-28 08:33N 43°23' E 009°42'7 7.4
2015-Jul-28 07:33N 43°15' E 009°43'7 7.4
2015-Jul-28 06:33N 43°08' E 009°42'8 7.7
2015-Jul-28 05:33N 42°60' E 009°41'8 7.2
2015-Jul-28 04:30N 42°54' E 009°47'26 8.2
2015-Jul-28 01:18N 42°37' E 010°14'6 8.4
2015-Jul-28 00:33N 42°32' E 010°20'17 8.3
2015-Jul-27 22:31N 42°20' E 010°36'295 7.1
2015-Jul-26 05:09N 38°48' E 015°06'5 8.5
2015-Jul-26 04:33N 38°44' E 015°10'9 8.4
2015-Jul-26 03:31N 38°38' E 015°18'8 8.4
2015-Jul-26 02:34N 38°32' E 015°25'8 8.3
2015-Jul-26 01:33N 38°27' E 015°33'8 8.2
2015-Jul-26 00:33N 38°21' E 015°41'7 6.7
2015-Jul-25 23:33N 38°15' E 015°39'8 7.9
2015-Jul-25 22:34N 38°07' E 015°36'8 8.0
2015-Jul-25 21:34N 37°59' E 015°35'8 8.0
2015-Jul-25 20:34N 37°51' E 015°35'7 7.3
2015-Jul-25 19:33N 37°44' E 015°34'7 6.8
2015-Jul-25 18:33N 37°37' E 015°33'40 8.0
2015-Jul-25 13:32N 36°57' E 015°27'8 8.3
2015-Jul-25 12:32N 36°49' E 015°25'57 8.1
2015-Jul-25 05:32N 35°59' E 014°52'3 3.1
2015-Jul-25 04:33N 35°56' E 014°50'0 0.0
2015-Jul-25 03:15N 35°56' E 014°50'0 0.0
2015-Jul-25 02:30N 35°56' E 014°50'0 0.0
2015-Jul-25 01:33N 35°56' E 014°50'0 0.1
2015-Jul-25 00:33N 35°56' E 014°50'0 0.0
2015-Jul-24 23:33N 35°56' E 014°50'0 0.0
2015-Jul-24 22:33N 35°56' E 014°50'0 0.0
2015-Jul-24 21:33N 35°56' E 014°50'0 0.0
2015-Jul-24 20:33N 35°56' E 014°50'0 0.0
2015-Jul-24 19:30N 35°56' E 014°50'0 0.0
2015-Jul-24 18:30N 35°56' E 014°50'0 0.0
2015-Jul-24 17:30N 35°56' E 014°50'0 0.0
2015-Jul-24 16:33N 35°56' E 014°50'7 6.7
2015-Jul-24 15:33N 35°55' E 014°42'9 8.7
2015-Jul-24 14:33N 35°54' E 014°31'1 0.1
2015-Jul-23 20:32N 35°53' E 014°30'0 0.0
2015-Jul-23 14:08N 35°53' E 014°30'0 0.0
2015-Jul-23 00:20N 35°53' E 014°30'0 0.0
2015-Jul-22 22:29N 35°53' E 014°30'0 0.0
2015-Jul-22 21:23N 35°53' E 014°30'0 0.0
2015-Jul-22 20:32N 35°53' E 014°30'0 0.0
2015-Jul-22 19:32N 35°53' E 014°30'2 0.3
2015-Jul-22 12:33N 35°55' E 014°32'1 1.4
2015-Jul-22 11:33N 35°56' E 014°33'2 2.1
2015-Jul-22 10:33N 35°58' E 014°34'0 0.3
2015-Jul-22 09:33N 35°58' E 014°35'0 0.3
2015-Jul-22 08:33N 35°58' E 014°35'0 0.3
2015-Jul-22 07:33N 35°58' E 014°35'0 0.5
2015-Jul-22 06:33N 35°58' E 014°35'1 0.5
2015-Jul-22 05:33N 35°59' E 014°35'2 1.6
2015-Jul-22 04:33N 36°00' E 014°36'8 7.7
2015-Jul-22 03:33N 36°07' E 014°42'8 7.7
2015-Jul-22 02:33N 36°13' E 014°47'8 7.6
2015-Jul-22 01:33N 36°19' E 014°52'7 7.4
2015-Jul-22 00:33N 36°26' E 014°58'8 7.5
2015-Jul-21 23:33N 36°32' E 015°03'8 7.6
2015-Jul-21 22:33N 36°36' E 015°11'8 7.9
2015-Jul-21 21:33N 36°43' E 015°16'8 8.4
2015-Jul-21 20:33N 36°51' E 015°20'8 8.5
2015-Jul-21 19:33N 36°59' E 015°24'  

Dump ship's entire track history